Time;durP1;ratioP1;P1;durP2;ratioP2;P2;SDS_P1;SDS_P2;PMS_P1;PMS_P2;Temp;Humidity;BMP_temperature;BMP_pressure;BME280_temperature;BME280_humidity;BME280_pressure;Samples;Min_cycle;Max_cycle;Signal;HPM_P1;HPM_P2
2022/07/20 05:51:09;;;;;;;6.68;2.80;;;23.70;99.90;;;;;;5093303;27;20370;-78
2022/07/20 05:53:54;;;;;;;5.32;3.00;;;23.60;99.90;;;;;;5074734;28;20410;-81
2022/07/20 05:56:38;;;;;;;6.28;2.63;;;23.80;99.90;;;;;;5043981;28;20531;-81
2022/07/20 05:59:22;;;;;;;7.47;3.00;;;24.00;99.90;;;;;;5038312;28;20932;-81
2022/07/20 06:02:07;;;;;;;6.32;3.03;;;24.20;99.90;;;;;;5046973;28;20417;-82
2022/07/20 06:04:51;;;;;;;8.80;3.05;;;24.30;99.90;;;;;;5047988;28;20401;-81
2022/07/20 06:07:36;;;;;;;8.32;2.50;;;24.50;99.90;;;;;;5050238;28;20828;-81
2022/07/20 06:10:22;;;;;;;6.25;2.90;;;24.60;99.90;;;;;;5048740;28;20722;-81
2022/07/20 06:13:06;;;;;;;8.45;2.80;;;24.80;99.90;;;;;;5057285;28;20916;-82
2022/07/20 06:15:50;;;;;;;9.82;2.80;;;24.90;99.90;;;;;;5050007;28;20421;-81
2022/07/20 06:18:34;;;;;;;8.57;2.90;;;25.00;99.90;;;;;;5047907;28;20431;-81
2022/07/20 06:21:19;;;;;;;8.02;2.92;;;25.10;99.90;;;;;;5051804;28;20427;-82
2022/07/20 06:24:03;;;;;;;8.50;2.60;;;25.30;99.90;;;;;;5049546;28;20393;-82
2022/07/20 06:26:48;;;;;;;6.20;2.60;;;25.40;99.90;;;;;;5049989;28;20413;-82
2022/07/20 06:29:33;;;;;;;7.30;2.80;;;25.60;99.90;;;;;;5047875;28;20513;-82
2022/07/20 06:32:17;;;;;;;9.48;2.60;;;25.60;99.90;;;;;;5044060;28;20785;-81
2022/07/20 06:35:02;;;;;;;10.60;2.90;;;25.80;99.90;;;;;;5048832;28;20393;-80
2022/07/20 06:37:47;;;;;;;7.90;2.83;;;25.90;99.90;;;;;;5047353;28;20497;-83
2022/07/20 06:40:31;;;;;;;6.93;2.90;;;26.00;99.90;;;;;;5046719;28;20415;-79
2022/07/20 06:43:16;;;;;;;6.05;2.80;;;26.20;99.90;;;;;;5040337;28;20421;-78
2022/07/20 06:46:00;;;;;;;6.47;2.70;;;26.30;99.90;;;;;;5047639;28;20525;-83
2022/07/20 06:48:44;;;;;;;8.43;3.08;;;26.40;99.90;;;;;;5043012;28;20459;-83
2022/07/20 06:51:29;;;;;;;6.30;2.60;;;26.60;99.90;;;;;;5049406;28;20429;-83
2022/07/20 06:54:13;;;;;;;10.07;2.63;;;26.70;99.90;;;;;;5047796;28;20409;-83
2022/07/20 06:56:58;;;;;;;5.03;2.80;;;26.80;99.90;;;;;;5056209;28;20500;-83
2022/07/20 06:59:43;;;;;;;6.38;2.65;;;26.90;99.90;;;;;;5047358;28;20510;-83
2022/07/20 07:02:27;;;;;;;11.18;3.15;;;27.10;99.90;;;;;;5028958;28;20496;-83
2022/07/20 07:05:12;;;;;;;7.53;3.45;;;27.20;99.90;;;;;;5036390;28;20424;-83
2022/07/20 07:07:56;;;;;;;5.22;3.20;;;27.40;99.90;;;;;;5034460;28;20434;-83
2022/07/20 07:10:40;;;;;;;14.57;3.45;;;27.60;99.90;;;;;;5036940;28;20426;-83
2022/07/20 07:13:24;;;;;;;9.77;3.40;;;27.70;99.90;;;;;;5035922;28;20411;-83
2022/07/20 07:16:08;;;;;;;8.70;3.38;;;27.90;99.90;;;;;;5039205;28;20406;-83
2022/07/20 07:18:53;;;;;;;9.75;3.28;;;28.00;99.90;;;;;;5034480;28;20415;-83
2022/07/20 07:21:37;;;;;;;9.77;3.90;;;28.20;99.90;;;;;;5036063;28;20418;-83
2022/07/20 07:24:21;;;;;;;9.85;3.78;;;28.30;99.90;;;;;;5035758;28;20457;-78
2022/07/20 07:27:06;;;;;;;10.88;3.38;;;28.50;99.90;;;;;;5042689;28;20434;-83
2022/07/20 07:29:51;;;;;;;12.40;4.32;;;28.60;99.90;;;;;;5027196;28;20481;-83
2022/07/20 07:32:35;;;;;;;6.78;3.63;;;28.70;99.90;;;;;;5039310;28;20491;-83
2022/07/20 07:35:20;;;;;;;9.07;3.70;;;28.90;99.90;;;;;;5039103;28;20413;-84
2022/07/20 07:38:04;;;;;;;6.75;3.55;;;29.00;99.90;;;;;;5035374;28;20441;-83
2022/07/20 07:40:49;;;;;;;9.90;3.90;;;29.10;99.90;;;;;;5039522;28;20501;-83
2022/07/20 07:43:33;;;;;;;9.83;4.47;;;29.30;99.90;;;;;;5039954;28;20406;-83
2022/07/20 07:46:19;;;;;;;10.13;4.05;;;29.40;99.90;;;;;;5033587;28;20449;-83
2022/07/20 07:49:03;;;;;;;9.35;3.78;;;29.60;99.90;;;;;;5040810;28;20607;-83
2022/07/20 07:51:48;;;;;;;10.85;3.13;;;29.70;99.90;;;;;;5041130;28;20480;-83
2022/07/20 07:54:32;;;;;;;12.43;3.23;;;29.80;99.90;;;;;;5037996;28;20418;-83
2022/07/20 07:57:16;;;;;;;11.63;3.70;;;29.90;99.90;;;;;;5038568;28;20459;-82
2022/07/20 08:00:02;;;;;;;12.73;3.50;;;30.00;99.90;;;;;;5030718;28;20486;-85
2022/07/20 08:02:48;;;;;;;8.23;3.00;;;30.10;99.90;;;;;;5052353;28;20410;-82
2022/07/20 08:05:33;;;;;;;8.55;3.60;;;30.30;99.90;;;;;;5026632;28;20409;-84
2022/07/20 08:08:17;;;;;;;8.38;3.53;;;30.50;99.90;;;;;;5029594;28;20431;-83
2022/07/20 08:11:02;;;;;;;9.20;3.65;;;30.60;99.90;;;;;;5037637;28;20522;-81
2022/07/20 08:13:47;;;;;;;6.93;3.08;;;30.80;99.90;;;;;;5031176;28;20414;-78
2022/07/20 08:16:32;;;;;;;9.83;3.47;;;30.90;99.90;;;;;;5028460;28;20469;-82
2022/07/20 08:19:16;;;;;;;7.18;3.08;;;31.00;99.90;;;;;;5027696;28;20414;-80
2022/07/20 08:22:01;;;;;;;12.75;3.08;;;31.10;99.90;;;;;;5029580;28;20471;-80
2022/07/20 08:24:45;;;;;;;13.73;3.20;;;31.10;99.30;;;;;;5026503;28;20445;-80
2022/07/20 08:27:30;;;;;;;11.23;3.60;;;31.20;99.20;;;;;;5025246;28;20786;-79
2022/07/20 08:30:15;;;;;;;10.48;3.30;;;31.40;99.90;;;;;;5037780;28;20418;-80
2022/07/20 08:32:59;;;;;;;8.90;4.43;;;31.40;99.20;;;;;;5024505;28;20439;-81
2022/07/20 08:35:43;;;;;;;5.93;3.45;;;31.50;99.40;;;;;;5034544;28;20446;-81
2022/07/20 08:38:27;;;;;;;6.57;3.50;;;31.50;98.90;;;;;;5033725;28;20422;-81
2022/07/20 08:41:13;;;;;;;4.38;3.05;;;31.60;98.90;;;;;;5034405;28;20436;-81
2022/07/20 08:43:57;;;;;;;9.65;3.40;;;31.70;98.80;;;;;;5037384;28;20431;-81
2022/07/20 08:46:44;;;;;;;9.20;3.20;;;31.80;98.70;;;;;;5041128;28;20427;-81
2022/07/20 08:49:28;;;;;;;5.70;3.60;;;31.90;98.90;;;;;;5034008;28;20414;-81
2022/07/20 08:52:14;;;;;;;11.68;3.60;;;32.00;98.50;;;;;;5027547;28;20552;-81
2022/07/20 08:54:58;;;;;;;10.10;4.70;;;32.00;98.40;;;;;;5028088;28;20433;-81
2022/07/20 08:57:45;;;;;;;9.63;3.33;;;32.10;98.00;;;;;;5026001;28;20456;-82
2022/07/20 09:00:29;;;;;;;7.72;3.95;;;32.10;97.90;;;;;;5022372;28;20430;-81
2022/07/20 09:03:14;;;;;;;9.13;3.80;;;32.20;97.60;;;;;;5026839;28;20398;-81
2022/07/20 09:06:04;;;;;;;6.40;4.50;;;32.20;98.00;;;;;;5029742;28;20461;-81
2022/07/20 09:09:00;;;;;;;6.82;4.30;;;32.30;97.70;;;;;;5027136;28;20494;-81
2022/07/20 09:11:45;;;;;;;11.60;3.70;;;32.30;97.50;;;;;;5027267;28;20515;-81
2022/07/20 09:14:47;;;;;;;9.95;3.78;;;32.50;97.40;;;;;;5021701;28;20889;-81
2022/07/20 09:17:32;;;;;;;11.75;4.38;;;32.70;97.40;;;;;;5024783;28;20742;-81
2022/07/20 09:20:17;;;;;;;7.22;3.67;;;32.80;97.00;;;;;;5024788;28;20426;-81
2022/07/20 09:23:07;;;;;;;11.23;4.13;;;32.90;96.30;;;;;;5024343;28;20913;-81
2022/07/20 09:26:04;;;;;;;9.10;4.10;;;32.90;96.00;;;;;;5027347;28;20486;-81
2022/07/20 09:28:51;;;;;;;9.25;3.78;;;32.90;95.80;;;;;;5023552;28;20410;-81
2022/07/20 09:31:37;;;;;;;6.13;3.58;;;33.00;95.50;;;;;;5028079;28;20837;-81
2022/07/20 09:34:22;;;;;;;9.02;3.67;;;33.10;95.30;;;;;;5029768;28;20392;-81
2022/07/20 09:37:16;;;;;;;8.40;3.53;;;33.20;95.60;;;;;;5030644;28;20500;-81
2022/07/20 09:40:03;;;;;;;9.82;3.80;;;33.30;95.20;;;;;;5026014;28;20527;-81
2022/07/20 09:42:49;;;;;;;8.97;3.77;;;33.50;94.80;;;;;;5024134;28;20766;-82
2022/07/20 09:45:33;;;;;;;6.78;3.63;;;33.50;94.90;;;;;;5030717;28;20419;-81
2022/07/20 09:48:21;;;;;;;9.40;3.58;;;33.60;94.70;;;;;;5039378;28;20920;-81
2022/07/20 09:51:19;;;;;;;8.68;3.78;;;33.70;94.60;;;;;;5028631;28;20428;-81
2022/07/20 09:54:13;;;;;;;5.23;3.60;;;33.70;94.60;;;;;;5032089;28;20450;-81
2022/07/20 09:56:58;;;;;;;6.70;3.70;;;33.80;94.60;;;;;;5025400;28;20472;-81
2022/07/20 09:59:47;;;;;;;8.30;3.77;;;33.90;94.60;;;;;;5025522;28;20481;-82
2022/07/20 10:02:31;;;;;;;7.35;3.63;;;33.90;94.40;;;;;;5031696;28;20414;-81
2022/07/20 10:05:18;;;;;;;6.07;3.75;;;33.90;94.20;;;;;;5033701;28;20416;-81
2022/07/20 10:08:05;;;;;;;10.90;4.10;;;34.10;93.70;;;;;;5031771;28;20484;-81
2022/07/20 10:10:49;;;;;;;7.03;3.72;;;34.10;92.80;;;;;;5021706;28;20476;-81
2022/07/20 10:13:34;;;;;;;9.93;3.88;;;34.10;92.80;;;;;;5026367;28;20410;-81
2022/07/20 10:16:24;;;;;;;6.95;3.90;;;34.10;92.50;;;;;;5038896;28;20406;-81
2022/07/20 10:19:10;;;;;;;10.67;4.00;;;34.00;92.50;;;;;;5027462;28;20441;-81
2022/07/20 10:21:56;;;;;;;8.13;3.67;;;34.10;92.80;;;;;;5026028;28;20394;-81
2022/07/20 10:24:43;;;;;;;9.32;3.78;;;34.10;92.60;;;;;;5027400;28;20422;-80
2022/07/20 10:27:28;;;;;;;6.30;3.70;;;33.90;92.80;;;;;;5025962;28;20408;-81
2022/07/20 10:30:17;;;;;;;8.60;3.80;;;34.00;92.70;;;;;;5029964;28;20974;-81
2022/07/20 10:33:02;;;;;;;11.60;4.30;;;34.00;93.00;;;;;;5024905;28;20506;-81
2022/07/20 10:35:49;;;;;;;7.60;4.10;;;34.10;93.30;;;;;;5022818;28;20500;-81
2022/07/20 10:38:33;;;;;;;8.23;3.65;;;34.00;93.40;;;;;;5028495;28;20490;-81
2022/07/20 10:41:32;;;;;;;9.15;3.92;;;34.00;93.30;;;;;;5025096;28;20410;-81
2022/07/20 10:44:20;;;;;;;8.05;3.97;;;33.90;93.50;;;;;;5033483;28;20406;-81
2022/07/20 10:47:44;;;;;;;9.60;4.32;;;33.90;93.40;;;;;;5025380;28;20800;-81
2022/07/20 10:50:36;;;;;;;9.50;4.15;;;34.00;93.00;;;;;;5029266;28;20435;-81
2022/07/20 10:53:23;;;;;;;10.20;4.47;;;33.90;92.70;;;;;;5036491;28;20418;-81
2022/07/20 10:56:09;;;;;;;8.85;4.13;;;33.90;93.30;;;;;;5034877;28;20502;-81
2022/07/20 10:59:00;;;;;;;8.88;4.13;;;33.80;93.50;;;;;;5029207;28;20480;-81
2022/07/20 11:01:46;;;;;;;11.07;4.57;;;33.80;92.90;;;;;;5035379;28;20412;-81
2022/07/20 11:04:30;;;;;;;11.68;4.78;;;33.70;93.00;;;;;;5029001;28;20425;-81
2022/07/20 11:07:31;;;;;;;7.13;4.57;;;33.70;93.60;;;;;;5040319;28;20766;-81
2022/07/20 11:10:25;;;;;;;11.30;5.70;;;33.80;93.80;;;;;;5053135;28;20459;-81
2022/07/20 11:13:12;;;;;;;11.82;5.07;;;33.90;93.90;;;;;;5041900;28;20467;-81
2022/07/20 11:16:01;;;;;;;7.85;5.00;;;33.80;93.90;;;;;;5034121;28;20436;-80
2022/07/20 11:18:46;;;;;;;7.93;5.07;;;33.70;94.20;;;;;;5033191;28;20446;-80
2022/07/20 11:21:32;;;;;;;9.20;5.40;;;33.60;94.00;;;;;;5042685;28;20494;-80
2022/07/20 11:24:24;;;;;;;9.10;5.63;;;33.60;95.00;;;;;;5029426;28;20410;-80
2022/07/20 11:27:16;;;;;;;11.40;5.40;;;33.70;95.10;;;;;;5039822;28;20418;-80
2022/07/20 11:30:00;;;;;;;11.30;5.70;;;33.70;95.20;;;;;;5039102;28;20806;-80
2022/07/20 11:32:54;;;;;;;7.88;5.50;;;33.70;95.40;;;;;;5029691;28;20580;-80
2022/07/20 11:35:38;;;;;;;11.02;6.18;;;33.80;95.40;;;;;;5036711;28;20440;-80
2022/07/20 11:38:32;;;;;;;11.75;6.10;;;33.60;95.20;;;;;;5031496;28;20430;-80
2022/07/20 11:41:20;;;;;;;10.17;5.73;;;33.60;95.40;;;;;;5056259;28;20808;-80
2022/07/20 11:44:07;;;;;;;9.55;6.05;;;33.50;95.20;;;;;;5035235;28;20408;-80
2022/07/20 11:46:52;;;;;;;9.00;6.50;;;33.50;95.20;;;;;;5035427;28;20438;-80
2022/07/20 11:49:36;;;;;;;13.40;6.13;;;33.50;95.20;;;;;;5034676;28;20494;-80
2022/07/20 11:52:21;;;;;;;10.60;6.25;;;33.40;95.30;;;;;;5033222;28;20414;-80
2022/07/20 11:55:06;;;;;;;10.20;7.07;;;33.30;95.80;;;;;;5033558;28;20465;-80
2022/07/20 11:57:55;;;;;;;9.10;6.68;;;33.20;95.90;;;;;;5044631;28;20413;-80
2022/07/20 12:00:39;;;;;;;10.77;6.65;;;33.30;96.30;;;;;;5042053;28;20391;-80
2022/07/20 12:03:33;;;;;;;11.77;7.20;;;33.30;96.50;;;;;;5042099;28;20428;-80
2022/07/20 12:06:18;;;;;;;12.23;7.88;;;33.30;97.30;;;;;;5041045;28;20432;-80
2022/07/20 12:09:11;;;;;;;13.10;8.48;;;33.40;97.70;;;;;;5037825;28;20527;-80
2022/07/20 12:11:55;;;;;;;14.20;9.10;;;33.40;98.00;;;;;;5040124;28;20426;-80
2022/07/20 12:14:42;;;;;;;16.17;8.60;;;33.40;98.30;;;;;;5031367;28;20451;-80
2022/07/20 12:17:28;;;;;;;10.43;8.90;;;33.50;98.40;;;;;;5031507;28;20439;-80
2022/07/20 12:20:13;;;;;;;12.10;9.52;;;33.50;98.40;;;;;;5035422;28;20480;-80
2022/07/20 12:23:01;;;;;;;13.70;9.57;;;33.50;98.70;;;;;;5037068;28;20501;-80
2022/07/20 12:25:46;;;;;;;16.83;10.48;;;33.40;98.60;;;;;;5030670;28;20449;-80
2022/07/20 12:28:37;;;;;;;12.55;10.40;;;33.40;99.90;;;;;;5034998;28;20516;-80
2022/07/20 12:31:23;;;;;;;17.95;11.07;;;33.40;99.90;;;;;;5035832;28;20403;-81
2022/07/20 12:34:13;;;;;;;13.80;10.38;;;33.30;99.90;;;;;;5043204;28;20405;-80
2022/07/20 12:36:58;;;;;;;16.50;10.50;;;33.30;99.90;;;;;;5031196;28;20453;-81
2022/07/20 12:39:49;;;;;;;16.30;11.40;;;33.30;99.90;;;;;;5030488;28;20457;-80
2022/07/20 12:42:35;;;;;;;15.23;11.07;;;33.30;99.90;;;;;;5026885;28;20542;-80
2022/07/20 12:45:20;;;;;;;14.00;11.73;;;33.40;99.90;;;;;;5030524;28;20450;-80
2022/07/20 12:48:06;;;;;;;17.35;12.07;;;33.40;99.90;;;;;;5035807;28;20406;-80
2022/07/20 12:50:50;;;;;;;18.17;12.07;;;33.40;99.90;;;;;;5021336;28;20435;-80
2022/07/20 12:53:36;;;;;;;18.20;11.73;;;33.30;99.90;;;;;;5032750;28;20440;-80
2022/07/20 12:56:20;;;;;;;15.75;11.35;;;33.30;99.90;;;;;;5031690;28;20435;-80
2022/07/20 12:59:04;;;;;;;15.85;11.95;;;33.30;99.90;;;;;;5030169;28;20457;-80
2022/07/20 13:01:49;;;;;;;15.82;11.35;;;33.30;99.90;;;;;;5031572;28;20437;-80
2022/07/20 13:04:33;;;;;;;14.25;11.80;;;33.30;99.90;;;;;;5031524;28;20422;-80
2022/07/20 13:07:19;;;;;;;13.87;11.17;;;33.30;99.90;;;;;;5032073;28;20481;-80
2022/07/20 13:10:05;;;;;;;15.47;12.23;;;33.40;99.90;;;;;;5027886;28;20439;-81
2022/07/20 13:12:49;;;;;;;21.88;13.07;;;33.50;99.90;;;;;;5032994;28;20449;-80
2022/07/20 13:15:34;;;;;;;20.67;12.73;;;33.50;99.90;;;;;;5048165;28;20410;-80
2022/07/20 13:18:18;;;;;;;21.05;12.55;;;33.40;99.90;;;;;;5040725;28;20488;-81
2022/07/20 13:21:02;;;;;;;15.45;12.07;;;33.40;99.90;;;;;;5049990;28;20426;-81
2022/07/20 13:23:47;;;;;;;16.60;12.32;;;33.50;99.90;;;;;;5039249;28;21716;-81
2022/07/20 13:26:31;;;;;;;15.00;12.27;;;33.40;99.90;;;;;;5037851;28;20551;-81
2022/07/20 13:29:15;;;;;;;17.90;12.48;;;33.40;99.90;;;;;;5036418;28;20417;-80
2022/07/20 13:32:00;;;;;;;16.17;12.60;;;33.50;99.90;;;;;;5037267;28;20441;-81
2022/07/20 13:34:44;;;;;;;18.13;13.38;;;33.70;99.90;;;;;;5039447;28;20399;-80
2022/07/20 13:37:29;;;;;;;18.33;13.43;;;33.80;99.90;;;;;;5033530;28;20482;-81
2022/07/20 13:40:14;;;;;;;19.88;13.60;;;33.80;99.90;;;;;;5037906;28;20406;-81
2022/07/20 13:42:59;;;;;;;16.70;13.27;;;33.80;99.90;;;;;;5037518;28;20880;-81
2022/07/20 13:45:43;;;;;;;19.63;13.48;;;33.90;99.90;;;;;;5033593;28;20522;-81
2022/07/20 13:48:28;;;;;;;19.75;13.27;;;33.90;99.90;;;;;;5044127;28;20437;-81
2022/07/20 13:51:12;;;;;;;17.40;12.82;;;33.90;99.90;;;;;;5027347;28;20429;-80
2022/07/20 13:53:56;;;;;;;16.02;13.32;;;33.90;99.90;;;;;;5051761;28;20414;-81
2022/07/20 13:56:40;;;;;;;19.38;13.85;;;33.80;99.90;;;;;;5026549;28;20936;-80
2022/07/20 13:59:25;;;;;;;14.98;13.40;;;33.70;99.90;;;;;;5025562;28;20466;-81
2022/07/20 14:02:09;;;;;;;19.73;13.60;;;33.70;99.90;;;;;;5040210;28;20951;-81
2022/07/20 14:04:53;;;;;;;16.50;13.23;;;33.70;99.90;;;;;;5034125;28;20461;-81
2022/07/20 14:07:37;;;;;;;15.13;12.50;;;33.80;99.90;;;;;;5033355;28;20489;-81
2022/07/20 14:10:22;;;;;;;17.02;13.05;;;33.70;99.90;;;;;;5024811;28;20485;-81
2022/07/20 14:13:06;;;;;;;17.00;13.10;;;33.80;99.90;;;;;;5035325;28;20385;-81
2022/07/20 14:15:51;;;;;;;16.80;13.25;;;33.80;99.90;;;;;;5031680;28;20455;-81
2022/07/20 14:18:36;;;;;;;16.88;13.32;;;33.80;99.90;;;;;;5040223;28;20397;-81
2022/07/20 14:21:20;;;;;;;20.08;13.52;;;33.90;99.90;;;;;;5032926;28;20514;-79
2022/07/20 14:24:05;;;;;;;20.05;13.82;;;33.90;99.90;;;;;;5025101;28;20684;-81
2022/07/20 14:26:50;;;;;;;18.77;13.13;;;33.90;99.90;;;;;;5030719;28;20407;-81
2022/07/20 14:29:35;;;;;;;17.70;13.38;;;33.90;99.90;;;;;;5045043;28;20412;-81
2022/07/20 14:32:19;;;;;;;15.43;12.55;;;33.80;99.90;;;;;;5026707;28;20779;-81
2022/07/20 14:35:03;;;;;;;17.60;13.18;;;33.80;99.90;;;;;;5040913;28;20429;-81
2022/07/20 14:37:47;;;;;;;16.08;12.50;;;33.80;99.90;;;;;;5046377;28;20491;-80
2022/07/20 14:40:32;;;;;;;15.00;12.80;;;33.70;99.90;;;;;;5047725;28;20504;-81
2022/07/20 14:43:16;;;;;;;14.05;12.40;;;33.60;99.90;;;;;;5035832;28;20748;-80
2022/07/20 14:46:00;;;;;;;18.73;12.48;;;33.60;99.90;;;;;;5039474;28;20471;-80
2022/07/20 14:48:45;;;;;;;19.40;12.93;;;33.60;99.90;;;;;;5033373;28;20426;-81
2022/07/20 14:51:29;;;;;;;17.45;12.73;;;33.60;99.90;;;;;;5034083;28;20403;-80
2022/07/20 14:54:13;;;;;;;15.07;13.03;;;33.60;99.90;;;;;;5029927;28;20879;-80
2022/07/20 14:56:57;;;;;;;17.00;12.27;;;33.60;99.90;;;;;;5030835;28;20959;-80
2022/07/20 14:59:41;;;;;;;16.98;12.90;;;33.70;99.90;;;;;;5035431;28;20472;-80
2022/07/20 15:02:26;;;;;;;15.90;12.75;;;33.60;99.90;;;;;;5034515;28;20476;-80
2022/07/20 15:05:12;;;;;;;17.58;12.45;;;33.50;99.90;;;;;;5034259;28;20553;-80
2022/07/20 15:07:56;;;;;;;16.83;12.30;;;33.60;99.90;;;;;;5035647;28;20418;-81
2022/07/20 15:10:41;;;;;;;15.95;12.55;;;33.60;99.90;;;;;;5038220;28;20449;-80
2022/07/20 15:13:27;;;;;;;15.77;12.55;;;33.60;99.90;;;;;;5038158;28;20417;-80
2022/07/20 15:16:12;;;;;;;17.60;12.80;;;33.60;99.90;;;;;;5040852;28;20468;-80
2022/07/20 15:18:56;;;;;;;20.05;13.25;;;33.60;99.90;;;;;;5029855;28;20426;-81
2022/07/20 15:21:40;;;;;;;17.92;12.70;;;33.60;99.90;;;;;;5028427;28;20403;-81
2022/07/20 15:24:24;;;;;;;17.25;13.07;;;33.70;99.90;;;;;;5030170;28;20461;-80
2022/07/20 15:27:09;;;;;;;14.93;12.63;;;33.80;99.90;;;;;;5044626;28;20421;-80
2022/07/20 15:29:53;;;;;;;16.00;12.75;;;33.80;99.90;;;;;;5034246;28;20438;-81
2022/07/20 15:32:37;;;;;;;17.52;12.88;;;33.80;99.90;;;;;;5035112;28;20690;-80
2022/07/20 15:35:21;;;;;;;18.70;13.18;;;33.80;99.90;;;;;;5033191;28;20468;-80
2022/07/20 15:38:06;;;;;;;17.02;12.13;;;33.70;99.90;;;;;;5031973;28;20418;-80
2022/07/20 15:40:50;;;;;;;18.55;12.70;;;33.60;99.90;;;;;;5037556;28;20461;-80
2022/07/20 15:43:36;;;;;;;14.45;11.98;;;33.60;99.90;;;;;;5032589;28;20459;-81
2022/07/20 15:46:20;;;;;;;17.20;12.10;;;33.60;99.90;;;;;;5036842;28;20481;-81
2022/07/20 15:49:04;;;;;;;15.18;11.80;;;33.70;99.90;;;;;;5033282;28;20856;-81
2022/07/20 15:51:48;;;;;;;14.52;12.23;;;33.80;99.90;;;;;;5034629;28;20402;-81
2022/07/20 15:54:33;;;;;;;20.05;12.20;;;33.80;99.90;;;;;;5032645;28;20504;-81
2022/07/20 15:57:19;;;;;;;22.38;12.57;;;33.80;99.90;;;;;;5037445;28;20399;-81
2022/07/20 16:00:07;;;;;;;14.80;11.90;;;33.70;99.90;;;;;;5041303;28;20422;-81
2022/07/20 16:02:51;;;;;;;21.00;12.68;;;33.70;99.90;;;;;;5036494;28;20460;-81
2022/07/20 16:05:36;;;;;;;16.83;12.30;;;33.70;99.90;;;;;;5034313;28;20418;-81
2022/07/20 16:08:20;;;;;;;16.55;12.70;;;33.70;99.90;;;;;;5045129;28;20414;-81
2022/07/20 16:11:05;;;;;;;17.83;12.53;;;33.70;99.90;;;;;;5036731;28;20445;-81
2022/07/20 16:13:49;;;;;;;18.33;12.70;;;33.70;99.90;;;;;;5042610;28;20418;-81
2022/07/20 16:16:33;;;;;;;16.20;12.38;;;33.50;99.90;;;;;;5044204;28;20403;-81
2022/07/20 16:19:18;;;;;;;19.23;12.73;;;33.50;99.90;;;;;;5035786;28;20442;-80
2022/07/20 16:22:03;;;;;;;15.55;11.95;;;33.40;99.90;;;;;;5036328;28;20413;-80
2022/07/20 16:24:48;;;;;;;19.98;12.68;;;33.40;99.90;;;;;;5043922;28;20398;-81
2022/07/20 16:27:32;;;;;;;14.80;12.23;;;33.50;99.90;;;;;;5027962;28;21047;-81
2022/07/20 16:30:17;;;;;;;14.35;11.90;;;33.40;99.90;;;;;;5044168;28;20408;-78
2022/07/20 16:33:03;;;;;;;15.68;12.05;;;33.30;99.90;;;;;;5040145;28;20414;-79
2022/07/20 16:35:49;;;;;;;14.95;12.35;;;33.20;99.90;;;;;;5034247;28;20411;-79
2022/07/20 16:38:33;;;;;;;19.05;12.00;;;33.20;99.90;;;;;;5037841;28;20425;-79
2022/07/20 16:41:18;;;;;;;14.27;11.77;;;33.10;99.90;;;;;;5032012;28;20930;-79
2022/07/20 16:44:02;;;;;;;14.55;11.75;;;33.00;99.90;;;;;;5027022;28;20402;-79
2022/07/20 16:46:46;;;;;;;14.23;11.87;;;33.00;99.90;;;;;;5027697;28;20429;-79
2022/07/20 16:49:30;;;;;;;15.07;11.38;;;33.10;99.90;;;;;;5032318;28;20417;-79
2022/07/20 16:52:15;;;;;;;15.95;11.43;;;33.10;99.90;;;;;;5034717;28;20517;-79
2022/07/20 16:54:59;;;;;;;15.23;11.27;;;33.00;99.90;;;;;;5027595;28;20412;-79
2022/07/20 16:57:43;;;;;;;16.92;11.43;;;33.00;99.90;;;;;;5035914;28;20994;-79
2022/07/20 17:00:27;;;;;;;16.67;11.35;;;33.00;99.90;;;;;;5033369;28;20476;-79
2022/07/20 17:03:11;;;;;;;14.57;11.00;;;33.00;99.90;;;;;;5025893;28;20432;-79
2022/07/20 17:05:56;;;;;;;14.38;11.00;;;33.00;99.90;;;;;;5048401;28;20410;-79
2022/07/20 17:08:40;;;;;;;15.40;11.23;;;32.90;99.90;;;;;;5025149;28;20430;-79
2022/07/20 17:11:25;;;;;;;14.43;10.87;;;32.90;99.90;;;;;;5026410;28;20435;-79
2022/07/20 17:14:09;;;;;;;13.23;10.90;;;32.70;99.90;;;;;;5031086;28;20950;-79
2022/07/20 17:16:53;;;;;;;16.02;10.55;;;32.70;99.90;;;;;;5023355;28;20410;-79
2022/07/20 17:19:37;;;;;;;15.73;10.80;;;32.60;99.90;;;;;;5020379;28;20413;-79
2022/07/20 17:22:21;;;;;;;12.15;10.38;;;32.50;99.90;;;;;;5031107;28;20401;-79
2022/07/20 17:25:06;;;;;;;13.48;10.07;;;32.50;99.90;;;;;;5025263;28;20398;-79
2022/07/20 17:27:50;;;;;;;13.93;10.32;;;32.50;99.90;;;;;;5027363;28;20978;-78
2022/07/20 17:30:34;;;;;;;13.07;10.15;;;32.50;99.90;;;;;;5023713;28;20445;-77
2022/07/20 17:33:20;;;;;;;15.95;10.70;;;32.40;99.90;;;;;;5021067;28;20492;-78
2022/07/20 17:36:05;;;;;;;13.57;9.43;;;32.30;99.90;;;;;;5027981;28;20413;-77
2022/07/20 17:38:49;;;;;;;11.20;9.50;;;32.30;99.90;;;;;;5033687;28;20422;-77
2022/07/20 17:41:34;;;;;;;13.80;10.02;;;32.30;99.90;;;;;;5032824;28;20412;-79
2022/07/20 17:44:19;;;;;;;14.75;9.40;;;32.20;99.90;;;;;;5032918;28;20475;-80
2022/07/20 17:47:04;;;;;;;13.90;9.20;;;32.30;99.90;;;;;;5028193;28;20463;-80
2022/07/20 17:49:49;;;;;;;15.32;9.38;;;32.10;99.90;;;;;;5028333;28;20458;-81
2022/07/20 17:52:33;;;;;;;12.68;9.10;;;32.10;99.90;;;;;;5038709;28;20443;-81
2022/07/20 17:55:18;;;;;;;12.82;8.80;;;32.10;99.90;;;;;;5034056;28;20394;-81
2022/07/20 17:58:04;;;;;;;13.50;8.80;;;31.90;99.90;;;;;;5032432;28;20414;-79
2022/07/20 18:00:48;;;;;;;13.10;8.45;;;31.80;99.90;;;;;;5030334;28;20386;-78
2022/07/20 18:03:33;;;;;;;12.27;8.00;;;31.70;99.90;;;;;;5033439;28;20438;-79
2022/07/20 18:06:17;;;;;;;13.87;8.53;;;31.60;99.90;;;;;;5034574;28;20439;-79
2022/07/20 18:09:05;;;;;;;10.65;7.47;;;31.60;99.90;;;;;;5044064;28;20419;-78
2022/07/20 18:11:49;;;;;;;10.88;7.50;;;31.60;99.90;;;;;;5049269;28;20417;-79
2022/07/20 18:14:34;;;;;;;14.60;8.60;;;31.50;99.90;;;;;;5037571;28;20396;-79
2022/07/20 18:17:18;;;;;;;16.65;7.85;;;31.50;99.90;;;;;;5035445;28;20438;-79
2022/07/20 18:20:03;;;;;;;11.77;8.10;;;31.40;99.90;;;;;;5036607;28;20437;-79
2022/07/20 18:22:47;;;;;;;9.60;7.80;;;31.40;99.90;;;;;;5037737;28;20399;-79
2022/07/20 18:25:33;;;;;;;12.35;8.02;;;31.30;99.90;;;;;;5025661;28;20465;-79
2022/07/20 18:28:17;;;;;;;11.80;7.57;;;31.20;99.90;;;;;;5031921;28;20540;-79
2022/07/20 18:31:01;;;;;;;10.98;7.60;;;31.10;99.90;;;;;;5032184;28;20441;-79
2022/07/20 18:33:46;;;;;;;11.70;7.53;;;31.00;99.90;;;;;;5029940;28;20498;-79
2022/07/20 18:36:31;;;;;;;12.68;7.32;;;30.80;99.90;;;;;;5030544;28;20492;-79
2022/07/20 18:39:15;;;;;;;9.52;7.07;;;30.70;99.90;;;;;;5035153;28;20408;-80
2022/07/20 18:41:59;;;;;;;11.95;6.82;;;30.60;99.90;;;;;;5030997;28;20438;-80
2022/07/20 18:44:43;;;;;;;9.25;6.40;;;30.50;99.90;;;;;;5025790;28;20521;-80
2022/07/20 18:47:29;;;;;;;9.10;6.50;;;30.40;99.90;;;;;;5029202;28;20405;-80
2022/07/20 18:50:14;;;;;;;10.50;6.63;;;30.30;99.90;;;;;;5038623;28;20438;-80
2022/07/20 18:52:58;;;;;;;9.40;6.55;;;30.20;99.90;;;;;;5044460;28;20469;-79
2022/07/20 18:55:43;;;;;;;10.40;6.72;;;30.20;99.90;;;;;;5031330;28;20480;-80
2022/07/20 18:58:27;;;;;;;8.27;6.35;;;30.10;99.90;;;;;;5035338;28;20502;-80
2022/07/20 19:01:11;;;;;;;9.75;6.40;;;30.00;99.90;;;;;;5024152;28;20425;-79
2022/07/20 19:03:56;;;;;;;8.57;6.18;;;30.00;99.90;;;;;;5029127;28;20461;-79
2022/07/20 19:06:40;;;;;;;9.60;6.57;;;29.90;99.90;;;;;;5034963;28;20414;-79
2022/07/20 19:09:24;;;;;;;12.18;6.78;;;29.90;99.90;;;;;;5031190;28;20478;-79
2022/07/20 19:12:09;;;;;;;10.73;6.70;;;29.70;99.90;;;;;;5042521;28;20409;-79
2022/07/20 19:14:53;;;;;;;10.77;6.80;;;29.60;99.90;;;;;;5034690;28;20460;-79
2022/07/20 19:17:39;;;;;;;11.38;6.88;;;29.60;99.90;;;;;;5040458;28;20414;-79
2022/07/20 19:20:25;;;;;;;11.48;6.85;;;29.50;99.90;;;;;;5034244;28;20482;-79
2022/07/20 19:23:10;;;;;;;11.07;7.00;;;29.40;99.90;;;;;;5034928;28;20417;-79
2022/07/20 19:25:57;;;;;;;11.00;6.50;;;29.40;99.90;;;;;;5035582;28;20414;-79
2022/07/20 19:28:41;;;;;;;11.45;6.57;;;29.30;99.90;;;;;;5045816;28;20445;-79
2022/07/20 19:31:27;;;;;;;14.70;6.90;;;29.30;99.90;;;;;;5042322;28;20436;-78
2022/07/20 19:34:11;;;;;;;12.00;6.75;;;29.20;99.90;;;;;;5043410;28;20494;-79
2022/07/20 19:36:56;;;;;;;8.65;6.60;;;29.10;99.90;;;;;;5034184;28;20412;-79
2022/07/20 19:39:40;;;;;;;9.15;6.47;;;29.10;99.90;;;;;;5027195;28;20426;-79
2022/07/20 19:42:25;;;;;;;10.33;6.90;;;29.10;99.90;;;;;;5033247;28;20418;-78
2022/07/20 19:45:10;;;;;;;12.17;7.13;;;29.10;99.90;;;;;;5050539;28;20414;-79
2022/07/20 19:47:59;;;;;;;11.20;7.10;;;28.90;99.90;;;;;;5037632;28;20490;-79
2022/07/20 19:50:43;;;;;;;12.55;7.38;;;28.90;99.90;;;;;;5051254;28;20430;-79
2022/07/20 19:53:27;;;;;;;11.57;7.10;;;28.80;99.90;;;;;;5028789;28;20414;-79
2022/07/20 19:56:13;;;;;;;9.35;7.38;;;28.70;99.90;;;;;;5033881;28;20386;-79
2022/07/20 19:58:57;;;;;;;12.43;6.97;;;28.60;99.90;;;;;;5043851;28;20474;-79